sensor_id;sensor_type;location;lat;lon;timestamp;pressure;altitude;pressure_sealevel;temperature;humidity
84734;BME280;74957;48.082;17.260;2024-03-08T00:01:14;1005.976;;;3.889;99.994
84734;BME280;74957;48.082;17.260;2024-03-08T00:06:13;1005.939;;;3.889;99.994
84734;BME280;74957;48.082;17.260;2024-03-08T00:11:09;1006.039;;;3.889;99.994
84734;BME280;74957;48.082;17.260;2024-03-08T00:16:13;1005.757;;;3.828;99.994
84734;BME280;74957;48.082;17.260;2024-03-08T00:21:09;1005.989;;;3.828;99.994
84734;BME280;74957;48.082;17.260;2024-03-08T00:26:11;1005.985;;;3.828;99.994
84734;BME280;74957;48.082;17.260;2024-03-08T00:31:16;1005.863;;;3.798;99.994
84734;BME280;74957;48.082;17.260;2024-03-08T00:36:06;1005.887;;;3.778;99.994
84734;BME280;74957;48.082;17.260;2024-03-08T00:41:13;1005.955;;;3.758;99.994
84734;BME280;74957;48.082;17.260;2024-03-08T00:46:13;1005.712;;;3.758;99.994
84734;BME280;74957;48.082;17.260;2024-03-08T00:51:02;1005.92;;;3.748;99.994
84734;BME280;74957;48.082;17.260;2024-03-08T00:55:57;1005.781;;;3.758;99.994
84734;BME280;74957;48.082;17.260;2024-03-08T01:01:03;1005.761;;;3.798;99.994
84734;BME280;74957;48.082;17.260;2024-03-08T01:05:58;1005.761;;;3.889;99.994
84734;BME280;74957;48.082;17.260;2024-03-08T01:10:59;1005.595;;;3.828;99.994
84734;BME280;74957;48.082;17.260;2024-03-08T01:16:05;1005.749;;;3.868;99.994
84734;BME280;74957;48.082;17.260;2024-03-08T01:20:57;1005.696;;;3.828;99.994
84734;BME280;74957;48.082;17.260;2024-03-08T01:25:54;1005.647;;;3.828;99.994
84734;BME280;74957;48.082;17.260;2024-03-08T01:31:06;1005.628;;;3.798;99.994
84734;BME280;74957;48.082;17.260;2024-03-08T01:35:53;1005.617;;;3.798;99.994
84734;BME280;74957;48.082;17.260;2024-03-08T01:40:55;1005.561;;;3.818;99.994
84734;BME280;74957;48.082;17.260;2024-03-08T01:46:00;1005.472;;;3.889;99.994
84734;BME280;74957;48.082;17.260;2024-03-08T01:50:54;1005.569;;;3.838;99.994
84734;BME280;74957;48.082;17.260;2024-03-08T01:56:01;1005.541;;;3.868;99.994
84734;BME280;74957;48.082;17.260;2024-03-08T02:01:06;1005.56;;;3.868;99.994
84734;BME280;74957;48.082;17.260;2024-03-08T02:06:02;1005.376;;;3.828;99.994
84734;BME280;74957;48.082;17.260;2024-03-08T02:11:09;1005.4;;;3.758;99.994
84734;BME280;74957;48.082;17.260;2024-03-08T02:16:06;1005.527;;;3.748;99.994
84734;BME280;74957;48.082;17.260;2024-03-08T02:21:03;1005.408;;;3.758;99.994
84734;BME280;74957;48.082;17.260;2024-03-08T02:26:01;1005.431;;;3.717;99.994
84734;BME280;74957;48.082;17.260;2024-03-08T02:31:05;1005.454;;;3.737;99.994
84734;BME280;74957;48.082;17.260;2024-03-08T02:36:05;1005.311;;;3.748;99.994
84734;BME280;74957;48.082;17.260;2024-03-08T02:40:58;1005.392;;;3.737;99.994
84734;BME280;74957;48.082;17.260;2024-03-08T02:46:08;1005.5;;;3.737;99.994
84734;BME280;74957;48.082;17.260;2024-03-08T02:51:11;1005.505;;;3.758;99.994
84734;BME280;74957;48.082;17.260;2024-03-08T02:56:00;1005.487;;;3.717;99.994
84734;BME280;74957;48.082;17.260;2024-03-08T03:01:13;1005.466;;;3.707;99.994
84734;BME280;74957;48.082;17.260;2024-03-08T03:06:07;1005.433;;;3.687;99.994
84734;BME280;74957;48.082;17.260;2024-03-08T03:11:11;1005.442;;;3.657;99.994
84734;BME280;74957;48.082;17.260;2024-03-08T03:16:10;1005.383;;;3.637;99.994
84734;BME280;74957;48.082;17.260;2024-03-08T03:20:57;1005.432;;;3.647;99.994
84734;BME280;74957;48.082;17.260;2024-03-08T03:25:57;1005.472;;;3.687;99.994
84734;BME280;74957;48.082;17.260;2024-03-08T03:31:04;1005.391;;;3.677;99.994
84734;BME280;74957;48.082;17.260;2024-03-08T03:35:57;1005.316;;;3.677;99.994
84734;BME280;74957;48.082;17.260;2024-03-08T03:41:01;1005.362;;;3.707;99.994
84734;BME280;74957;48.082;17.260;2024-03-08T03:46:06;1005.277;;;3.637;99.994
84734;BME280;74957;48.082;17.260;2024-03-08T03:51:05;1005.262;;;3.657;99.994
84734;BME280;74957;48.082;17.260;2024-03-08T03:56:01;1005.343;;;3.617;99.994
84734;BME280;74957;48.082;17.260;2024-03-08T04:01:13;1005.273;;;3.617;99.994
84734;BME280;74957;48.082;17.260;2024-03-08T04:06:00;1005.527;;;3.637;99.994
84734;BME280;74957;48.082;17.260;2024-03-08T04:11:00;1005.331;;;3.596;99.994
84734;BME280;74957;48.082;17.260;2024-03-08T04:16:05;1005.393;;;3.617;99.994
84734;BME280;74957;48.082;17.260;2024-03-08T04:20:56;1005.214;;;3.576;99.994
84734;BME280;74957;48.082;17.260;2024-03-08T04:25:59;1005.446;;;3.566;99.994
84734;BME280;74957;48.082;17.260;2024-03-08T04:31:04;1005.301;;;3.596;99.994
84734;BME280;74957;48.082;17.260;2024-03-08T04:35:57;1005.401;;;3.596;99.994
84734;BME280;74957;48.082;17.260;2024-03-08T04:40:56;1005.278;;;3.596;99.994
84734;BME280;74957;48.082;17.260;2024-03-08T04:46:06;1005.419;;;3.657;99.994
84734;BME280;74957;48.082;17.260;2024-03-08T04:50:57;1005.474;;;3.637;99.994
84734;BME280;74957;48.082;17.260;2024-03-08T04:55:57;1005.479;;;3.647;99.994
84734;BME280;74957;48.082;17.260;2024-03-08T05:01:02;1005.464;;;3.637;99.994
84734;BME280;74957;48.082;17.260;2024-03-08T05:05:56;1005.549;;;3.647;99.994
84734;BME280;74957;48.082;17.260;2024-03-08T05:10:53;1005.546;;;3.647;99.994
84734;BME280;74957;48.082;17.260;2024-03-08T05:16:00;1005.473;;;3.657;99.994
84734;BME280;74957;48.082;17.260;2024-03-08T05:20:59;1005.595;;;3.647;99.994
84734;BME280;74957;48.082;17.260;2024-03-08T05:26:03;1005.555;;;3.657;99.994
84734;BME280;74957;48.082;17.260;2024-03-08T05:31:04;1005.651;;;3.677;99.994
84734;BME280;74957;48.082;17.260;2024-03-08T05:35:57;1005.518;;;3.687;99.994
84734;BME280;74957;48.082;17.260;2024-03-08T05:40:57;1005.522;;;3.687;99.994
84734;BME280;74957;48.082;17.260;2024-03-08T05:46:05;1005.59;;;3.717;99.994
84734;BME280;74957;48.082;17.260;2024-03-08T05:50:59;1005.554;;;3.687;99.994
84734;BME280;74957;48.082;17.260;2024-03-08T05:55:57;1005.431;;;3.647;99.994
84734;BME280;74957;48.082;17.260;2024-03-08T06:01:05;1005.589;;;3.617;99.994
84734;BME280;74957;48.082;17.260;2024-03-08T06:06:03;1005.662;;;3.596;99.994
84734;BME280;74957;48.082;17.260;2024-03-08T06:10:54;1005.582;;;3.647;99.994
84734;BME280;74957;48.082;17.260;2024-03-08T06:16:10;1005.609;;;3.677;99.994
84734;BME280;74957;48.082;17.260;2024-03-08T06:21:08;1005.63;;;3.748;99.994
84734;BME280;74957;48.082;17.260;2024-03-08T06:26:01;1005.679;;;3.798;99.994
84734;BME280;74957;48.082;17.260;2024-03-08T06:31:09;1005.746;;;3.818;99.994
84734;BME280;74957;48.082;17.260;2024-03-08T06:36:09;1005.754;;;3.828;99.994
84734;BME280;74957;48.082;17.260;2024-03-08T06:41:09;1005.854;;;3.828;99.994
84734;BME280;74957;48.082;17.260;2024-03-08T06:46:14;1005.84;;;3.838;99.994
84734;BME280;74957;48.082;17.260;2024-03-08T06:51:10;1005.819;;;3.838;99.994
84734;BME280;74957;48.082;17.260;2024-03-08T06:56:13;1005.884;;;3.838;99.994
84734;BME280;74957;48.082;17.260;2024-03-08T07:01:18;1005.755;;;3.838;99.994
84734;BME280;74957;48.082;17.260;2024-03-08T07:06:02;1005.831;;;3.868;99.994
84734;BME280;74957;48.082;17.260;2024-03-08T07:11:00;1005.893;;;3.889;99.994
84734;BME280;74957;48.082;17.260;2024-03-08T07:16:07;1005.796;;;3.929;99.994
84734;BME280;74957;48.082;17.260;2024-03-08T07:21:01;1005.87;;;4.009;99.994
84734;BME280;74957;48.082;17.260;2024-03-08T07:26:00;1005.794;;;4.07;99.994
84734;BME280;74957;48.082;17.260;2024-03-08T07:31:06;1005.906;;;4.221;99.994
84734;BME280;74957;48.082;17.260;2024-03-08T07:36:08;1005.816;;;4.271;99.994
84734;BME280;74957;48.082;17.260;2024-03-08T07:41:12;1005.828;;;4.412;99.994
84734;BME280;74957;48.082;17.260;2024-03-08T07:46:26;1005.976;;;4.513;99.994
84734;BME280;74957;48.082;17.260;2024-03-08T07:51:15;1006.097;;;4.483;99.994
84734;BME280;74957;48.082;17.260;2024-03-08T07:56:12;1006.041;;;4.473;99.994
84734;BME280;74957;48.082;17.260;2024-03-08T08:01:21;1005.922;;;4.634;99.994
84734;BME280;74957;48.082;17.260;2024-03-08T08:06:14;1006.014;;;4.664;99.994
84734;BME280;74957;48.082;17.260;2024-03-08T08:11:15;1005.909;;;4.765;99.994
84734;BME280;74957;48.082;17.260;2024-03-08T08:16:15;1005.921;;;4.845;99.994
84734;BME280;74957;48.082;17.260;2024-03-08T08:21:06;1006.035;;;4.875;99.994
84734;BME280;74957;48.082;17.260;2024-03-08T08:26:14;1005.898;;;4.906;99.994
84734;BME280;74957;48.082;17.260;2024-03-08T08:31:11;1005.941;;;4.976;99.994
84734;BME280;74957;48.082;17.260;2024-03-08T08:35:59;1006.039;;;5.127;99.994
84734;BME280;74957;48.082;17.260;2024-03-08T08:41:10;1006.006;;;5.309;99.994
84734;BME280;74957;48.082;17.260;2024-03-08T08:46:13;1005.958;;;5.339;99.994
84734;BME280;74957;48.082;17.260;2024-03-08T08:51:03;1005.983;;;5.409;99.994
84734;BME280;74957;48.082;17.260;2024-03-08T08:55:58;1006.075;;;5.389;99.994
84734;BME280;74957;48.082;17.260;2024-03-08T09:01:04;1006.102;;;5.429;99.994
84734;BME280;74957;48.082;17.260;2024-03-08T09:05:58;1005.97;;;5.57;99.994
84734;BME280;74957;48.082;17.260;2024-03-08T09:10:59;1006.156;;;5.601;99.994
84734;BME280;74957;48.082;17.260;2024-03-08T09:16:08;1006.06;;;5.711;99.994
84734;BME280;74957;48.082;17.260;2024-03-08T09:21:02;1006.0;;;5.782;99.994
84734;BME280;74957;48.082;17.260;2024-03-08T09:26:01;1005.904;;;5.923;99.994
84734;BME280;74957;48.082;17.260;2024-03-08T09:31:16;1005.866;;;6.084;99.994
84734;BME280;74957;48.082;17.260;2024-03-08T09:36:05;1005.869;;;6.024;99.994
84734;BME280;74957;48.082;17.260;2024-03-08T09:41:07;1006.046;;;6.024;99.664
84734;BME280;74957;48.082;17.260;2024-03-08T09:46:14;1006.012;;;5.933;99.048
84734;BME280;74957;48.082;17.260;2024-03-08T09:51:10;1006.065;;;6.034;99.994
84734;BME280;74957;48.082;17.260;2024-03-08T09:56:10;1005.859;;;5.923;98.944
84734;BME280;74957;48.082;17.260;2024-03-08T10:01:10;1005.935;;;5.872;99.457
84734;BME280;74957;48.082;17.260;2024-03-08T10:06:10;1005.972;;;6.074;99.994
84734;BME280;74957;48.082;17.260;2024-03-08T10:11:11;1005.974;;;6.114;98.486
84734;BME280;74957;48.082;17.260;2024-03-08T10:16:17;1005.968;;;6.104;97.864
84734;BME280;74957;48.082;17.260;2024-03-08T10:21:12;1006.019;;;6.074;98.688
84734;BME280;74957;48.082;17.260;2024-03-08T10:26:16;1005.978;;;6.255;99.103
84734;BME280;74957;48.082;17.260;2024-03-08T10:31:15;1005.996;;;6.447;99.365
84734;BME280;74957;48.082;17.260;2024-03-08T10:36:15;1005.834;;;6.406;97.198
84734;BME280;74957;48.082;17.260;2024-03-08T10:41:12;1005.924;;;6.487;96.533
84734;BME280;74957;48.082;17.260;2024-03-08T10:46:30;1005.887;;;6.588;97.052
84734;BME280;74957;48.082;17.260;2024-03-08T10:51:09;1005.827;;;6.507;94.678
84734;BME280;74957;48.082;17.260;2024-03-08T11:01:09;1005.899;;;6.487;95.197
84734;BME280;74957;48.082;17.260;2024-03-08T11:06:13;1005.943;;;6.688;95.3
84734;BME280;74957;48.082;17.260;2024-03-08T11:11:11;1006.012;;;6.729;95.05
84734;BME280;74957;48.082;17.260;2024-03-08T11:16:10;1005.794;;;6.668;93.75
84734;BME280;74957;48.082;17.260;2024-03-08T11:21:13;1005.874;;;6.688;94.678
84734;BME280;74957;48.082;17.260;2024-03-08T11:26:20;1005.797;;;6.718;94.324
84734;BME280;74957;48.082;17.260;2024-03-08T11:31:28;1005.695;;;6.729;93.811
84734;BME280;74957;48.082;17.260;2024-03-08T11:36:11;1005.663;;;6.849;94.531
84734;BME280;74957;48.082;17.260;2024-03-08T11:41:10;1005.777;;;6.718;92.267
84734;BME280;74957;48.082;17.260;2024-03-08T11:46:13;1005.667;;;6.547;92.615
84734;BME280;74957;48.082;17.260;2024-03-08T11:51:07;1005.743;;;6.467;93.585
84734;BME280;74957;48.082;17.260;2024-03-08T11:56:08;1005.551;;;6.537;94.47
84734;BME280;74957;48.082;17.260;2024-03-08T12:01:15;1005.674;;;6.658;93.958
84734;BME280;74957;48.082;17.260;2024-03-08T12:11:05;1005.45;;;6.88;93.5
84734;BME280;74957;48.082;17.260;2024-03-08T12:16:08;1005.522;;;7.151;90.637
84734;BME280;74957;48.082;17.260;2024-03-08T12:21:07;1005.524;;;7.151;90.43
84734;BME280;74957;48.082;17.260;2024-03-08T12:26:12;1005.519;;;7.021;89.026
84734;BME280;74957;48.082;17.260;2024-03-08T12:31:03;1005.389;;;6.95;89.441
84734;BME280;74957;48.082;17.260;2024-03-08T12:36:05;1005.392;;;6.668;90.552
84734;BME280;74957;48.082;17.260;2024-03-08T12:41:05;1005.313;;;6.718;91.644
84734;BME280;74957;48.082;17.260;2024-03-08T12:46:06;1005.305;;;6.769;91.028
84734;BME280;74957;48.082;17.260;2024-03-08T12:51:05;1005.403;;;6.698;90.552
84734;BME280;74957;48.082;17.260;2024-03-08T12:56:00;1005.186;;;6.809;91.028
84734;BME280;74957;48.082;17.260;2024-03-08T13:01:04;1005.201;;;6.97;90.369
84734;BME280;74957;48.082;17.260;2024-03-08T13:06:00;1005.322;;;7.051;90.265
84734;BME280;74957;48.082;17.260;2024-03-08T13:11:03;1005.238;;;6.849;89.685
84734;BME280;74957;48.082;17.260;2024-03-08T13:16:02;1005.318;;;6.829;89.069
84734;BME280;74957;48.082;17.260;2024-03-08T13:21:02;1005.186;;;6.87;89.276
84734;BME280;74957;48.082;17.260;2024-03-08T13:26:00;1005.115;;;6.829;89.069
84734;BME280;74957;48.082;17.260;2024-03-08T13:31:05;1005.069;;;6.759;90.1
84734;BME280;74957;48.082;17.260;2024-03-08T13:35:59;1005.087;;;6.829;89.685
84734;BME280;74957;48.082;17.260;2024-03-08T13:41:01;1005.072;;;6.87;89.893
84734;BME280;74957;48.082;17.260;2024-03-08T13:46:03;1005.099;;;6.97;89.441
84734;BME280;74957;48.082;17.260;2024-03-08T13:51:02;1004.928;;;7.021;89.233
84734;BME280;74957;48.082;17.260;2024-03-08T13:56:03;1004.915;;;7.0;89.026
84734;BME280;74957;48.082;17.260;2024-03-08T14:01:05;1004.814;;;7.262;88.782
84734;BME280;74957;48.082;17.260;2024-03-08T14:06:00;1004.808;;;7.363;88.019
84734;BME280;74957;48.082;17.260;2024-03-08T14:11:05;1004.767;;;7.494;88.019
84734;BME280;74957;48.082;17.260;2024-03-08T14:16:06;1004.671;;;7.715;85.919
84734;BME280;74957;48.082;17.260;2024-03-08T14:20:57;1004.656;;;7.675;84.583
84734;BME280;74957;48.082;17.260;2024-03-08T14:26:05;1004.584;;;7.796;84.375
84734;BME280;74957;48.082;17.260;2024-03-08T14:31:12;1004.575;;;7.715;85.406
84734;BME280;74957;48.082;17.260;2024-03-08T14:36:09;1004.639;;;7.514;85.754
84734;BME280;74957;48.082;17.260;2024-03-08T14:41:06;1004.595;;;7.484;85.443
84734;BME280;74957;48.082;17.260;2024-03-08T14:46:11;1004.416;;;7.524;85.547
84734;BME280;74957;48.082;17.260;2024-03-08T14:51:14;1004.403;;;7.303;85.999
84734;BME280;74957;48.082;17.260;2024-03-08T14:56:12;1004.496;;;7.423;85.651
84734;BME280;74957;48.082;17.260;2024-03-08T15:01:15;1004.456;;;7.605;83.447
84734;BME280;74957;48.082;17.260;2024-03-08T15:06:10;1004.368;;;7.786;81.702
84734;BME280;74957;48.082;17.260;2024-03-08T15:11:14;1004.355;;;8.068;81.006
84734;BME280;74957;48.082;17.260;2024-03-08T15:16:10;1004.458;;;8.209;81.213
84734;BME280;74957;48.082;17.260;2024-03-08T15:21:02;1004.493;;;8.118;80.389
84734;BME280;74957;48.082;17.260;2024-03-08T15:25:59;1004.449;;;8.128;79.877
84734;BME280;74957;48.082;17.260;2024-03-08T15:31:08;1004.296;;;8.008;79.608
84734;BME280;74957;48.082;17.260;2024-03-08T15:35:57;1004.345;;;7.957;80.634
84734;BME280;74957;48.082;17.260;2024-03-08T15:40:56;1004.333;;;7.675;83.142
84734;BME280;74957;48.082;17.260;2024-03-08T15:46:03;1004.396;;;7.484;83.899
84734;BME280;74957;48.082;17.260;2024-03-08T15:50:58;1004.341;;;7.524;84.723
84734;BME280;74957;48.082;17.260;2024-03-08T15:56:00;1004.279;;;7.494;85.754
84734;BME280;74957;48.082;17.260;2024-03-08T16:01:10;1004.261;;;7.282;87.03
84734;BME280;74957;48.082;17.260;2024-03-08T16:06:03;1004.313;;;7.172;87.854
84734;BME280;74957;48.082;17.260;2024-03-08T16:11:02;1004.234;;;7.182;88.47
84734;BME280;74957;48.082;17.260;2024-03-08T16:16:06;1004.27;;;7.172;88.574
84734;BME280;74957;48.082;17.260;2024-03-08T16:21:09;1004.201;;;7.131;88.409
84734;BME280;74957;48.082;17.260;2024-03-08T16:26:03;1004.228;;;7.051;89.746
84734;BME280;74957;48.082;17.260;2024-03-08T16:31:11;1004.181;;;6.91;91.339
84734;BME280;74957;48.082;17.260;2024-03-08T16:36:05;1004.178;;;6.87;92.371
84734;BME280;74957;48.082;17.260;2024-03-08T16:41:10;1004.162;;;6.799;93.5
84734;BME280;74957;48.082;17.260;2024-03-08T16:46:11;1004.261;;;6.799;94.019
84734;BME280;74957;48.082;17.260;2024-03-08T16:51:07;1004.139;;;6.658;94.165
84734;BME280;74957;48.082;17.260;2024-03-08T16:56:01;1004.094;;;6.668;94.885
84734;BME280;74957;48.082;17.260;2024-03-08T17:01:07;1004.17;;;6.628;95.197
84734;BME280;74957;48.082;17.260;2024-03-08T17:06:10;1004.078;;;6.507;95.605
84734;BME280;74957;48.082;17.260;2024-03-08T17:11:11;1004.129;;;6.477;96.167
84734;BME280;74957;48.082;17.260;2024-03-08T17:16:16;1004.169;;;6.467;96.582
84734;BME280;74957;48.082;17.260;2024-03-08T17:21:01;1004.175;;;6.447;97.095
84734;BME280;74957;48.082;17.260;2024-03-08T17:26:01;1004.088;;;6.386;97.51
84734;BME280;74957;48.082;17.260;2024-03-08T17:31:05;1004.256;;;6.366;97.51
84734;BME280;74957;48.082;17.260;2024-03-08T17:35:54;1004.24;;;6.356;97.925
84734;BME280;74957;48.082;17.260;2024-03-08T17:40:59;1004.168;;;6.336;97.925
84734;BME280;74957;48.082;17.260;2024-03-08T17:46:01;1004.141;;;6.356;98.23
84734;BME280;74957;48.082;17.260;2024-03-08T17:50:58;1004.132;;;6.386;98.334
84734;BME280;74957;48.082;17.260;2024-03-08T17:56:01;1004.122;;;6.366;98.749
84734;BME280;74957;48.082;17.260;2024-03-08T18:01:04;1004.22;;;6.285;99.158
84734;BME280;74957;48.082;17.260;2024-03-08T18:06:00;1004.102;;;6.205;99.518
84734;BME280;74957;48.082;17.260;2024-03-08T18:10:56;1004.236;;;6.235;99.622
84734;BME280;74957;48.082;17.260;2024-03-08T18:16:03;1004.249;;;6.144;99.823
84734;BME280;74957;48.082;17.260;2024-03-08T18:21:05;1004.208;;;6.114;99.994
84734;BME280;74957;48.082;17.260;2024-03-08T18:26:15;1004.228;;;6.054;99.994
84734;BME280;74957;48.082;17.260;2024-03-08T18:31:19;1004.219;;;5.993;99.994
84734;BME280;74957;48.082;17.260;2024-03-08T18:36:09;1004.204;;;5.973;99.994
84734;BME280;74957;48.082;17.260;2024-03-08T18:41:09;1004.169;;;5.963;99.994
84734;BME280;74957;48.082;17.260;2024-03-08T18:46:14;1004.2;;;5.872;99.994
84734;BME280;74957;48.082;17.260;2024-03-08T18:51:13;1004.165;;;5.893;99.994
84734;BME280;74957;48.082;17.260;2024-03-08T18:55:56;1004.067;;;5.903;99.994
84734;BME280;74957;48.082;17.260;2024-03-08T19:01:04;1004.015;;;5.812;99.994
84734;BME280;74957;48.082;17.260;2024-03-08T19:06:00;1004.123;;;5.721;99.994
84734;BME280;74957;48.082;17.260;2024-03-08T19:11:00;1004.131;;;5.742;99.994
84734;BME280;74957;48.082;17.260;2024-03-08T19:16:08;1004.082;;;5.691;99.994
84734;BME280;74957;48.082;17.260;2024-03-08T19:20:55;1004.008;;;5.681;99.994
84734;BME280;74957;48.082;17.260;2024-03-08T19:25:58;1004.126;;;5.631;99.994
84734;BME280;74957;48.082;17.260;2024-03-08T19:31:02;1003.909;;;5.641;99.994
84734;BME280;74957;48.082;17.260;2024-03-08T19:35:56;1003.872;;;5.631;99.994
84734;BME280;74957;48.082;17.260;2024-03-08T19:40:58;1004.013;;;5.591;99.994
84734;BME280;74957;48.082;17.260;2024-03-08T19:46:03;1003.735;;;5.57;99.994
84734;BME280;74957;48.082;17.260;2024-03-08T19:50:58;1003.94;;;5.57;99.994
84734;BME280;74957;48.082;17.260;2024-03-08T19:55:56;1003.819;;;5.591;99.994
84734;BME280;74957;48.082;17.260;2024-03-08T20:01:13;1003.813;;;5.591;99.994
84734;BME280;74957;48.082;17.260;2024-03-08T20:06:15;1003.863;;;5.54;99.994
84734;BME280;74957;48.082;17.260;2024-03-08T20:11:10;1003.707;;;5.591;99.994
84734;BME280;74957;48.082;17.260;2024-03-08T20:16:16;1003.679;;;5.601;99.994
84734;BME280;74957;48.082;17.260;2024-03-08T20:21:10;1003.617;;;5.56;99.994
84734;BME280;74957;48.082;17.260;2024-03-08T20:26:00;1003.631;;;5.53;99.994
84734;BME280;74957;48.082;17.260;2024-03-08T20:31:04;1003.5;;;5.5;99.994
84734;BME280;74957;48.082;17.260;2024-03-08T20:36:12;1003.512;;;5.53;99.994
84734;BME280;74957;48.082;17.260;2024-03-08T20:41:12;1003.633;;;5.53;99.994
84734;BME280;74957;48.082;17.260;2024-03-08T20:46:13;1003.501;;;5.49;99.994
84734;BME280;74957;48.082;17.260;2024-03-08T20:51:09;1003.422;;;5.54;99.994
84734;BME280;74957;48.082;17.260;2024-03-08T20:56:10;1003.277;;;5.45;99.994
84734;BME280;74957;48.082;17.260;2024-03-08T21:01:18;1003.427;;;5.429;99.994
84734;BME280;74957;48.082;17.260;2024-03-08T21:06:12;1003.4;;;5.389;99.994
84734;BME280;74957;48.082;17.260;2024-03-08T21:11:08;1003.443;;;5.389;99.994
84734;BME280;74957;48.082;17.260;2024-03-08T21:16:15;1003.218;;;5.309;99.994
84734;BME280;74957;48.082;17.260;2024-03-08T21:21:04;1003.254;;;5.268;99.994
84734;BME280;74957;48.082;17.260;2024-03-08T21:26:08;1003.258;;;5.268;99.994
84734;BME280;74957;48.082;17.260;2024-03-08T21:31:15;1003.333;;;5.268;99.994
84734;BME280;74957;48.082;17.260;2024-03-08T21:36:14;1003.155;;;5.278;99.994
84734;BME280;74957;48.082;17.260;2024-03-08T21:41:07;1003.151;;;5.309;99.994
84734;BME280;74957;48.082;17.260;2024-03-08T21:46:12;1003.247;;;5.278;99.994
84734;BME280;74957;48.082;17.260;2024-03-08T21:51:10;1003.224;;;5.238;99.994
84734;BME280;74957;48.082;17.260;2024-03-08T21:56:07;1003.22;;;5.208;99.994
84734;BME280;74957;48.082;17.260;2024-03-08T22:01:11;1003.201;;;5.238;99.994
84734;BME280;74957;48.082;17.260;2024-03-08T22:06:07;1003.005;;;5.228;99.994
84734;BME280;74957;48.082;17.260;2024-03-08T22:11:07;1003.084;;;5.178;99.994
84734;BME280;74957;48.082;17.260;2024-03-08T22:16:07;1003.014;;;5.087;99.994
84734;BME280;74957;48.082;17.260;2024-03-08T22:21:01;1002.928;;;5.016;99.994
84734;BME280;74957;48.082;17.260;2024-03-08T22:25:59;1002.874;;;4.896;99.994
84734;BME280;74957;48.082;17.260;2024-03-08T22:31:05;1002.839;;;4.845;99.994
84734;BME280;74957;48.082;17.260;2024-03-08T22:35:57;1002.814;;;4.795;99.994
84734;BME280;74957;48.082;17.260;2024-03-08T22:40:56;1002.715;;;4.765;99.994
84734;BME280;74957;48.082;17.260;2024-03-08T22:46:06;1002.799;;;4.714;99.994
84734;BME280;74957;48.082;17.260;2024-03-08T22:50:56;1003.137;;;4.654;99.994
84734;BME280;74957;48.082;17.260;2024-03-08T22:56:01;1003.22;;;4.594;99.994
84734;BME280;74957;48.082;17.260;2024-03-08T23:01:10;1002.971;;;4.563;99.994
84734;BME280;74957;48.082;17.260;2024-03-08T23:06:01;1003.261;;;4.473;99.994
84734;BME280;74957;48.082;17.260;2024-03-08T23:11:00;1002.942;;;4.442;99.994
84734;BME280;74957;48.082;17.260;2024-03-08T23:16:24;1002.888;;;4.352;99.994
84734;BME280;74957;48.082;17.260;2024-03-08T23:21:01;1003.012;;;4.291;99.994
84734;BME280;74957;48.082;17.260;2024-03-08T23:26:01;1002.95;;;4.352;99.994
84734;BME280;74957;48.082;17.260;2024-03-08T23:31:02;1002.94;;;4.382;99.994
84734;BME280;74957;48.082;17.260;2024-03-08T23:35:55;1002.571;;;4.442;99.994
84734;BME280;74957;48.082;17.260;2024-03-08T23:40:58;1002.685;;;4.372;99.994
84734;BME280;74957;48.082;17.260;2024-03-08T23:46:09;1002.858;;;4.372;99.994
84734;BME280;74957;48.082;17.260;2024-03-08T23:51:10;1002.784;;;4.301;99.994
84734;BME280;74957;48.082;17.260;2024-03-08T23:56:12;1002.816;;;4.261;99.994
